This is the latest recevied weather packets stored in our database for station/object HS5GDX-4. If no packets are shown the sender has not sent any weather packets the latest 10 day(s).
| Time | Temp. | Humidity | Pressure | Rain* | Wind** | Luminosity | Snow |
|---|---|---|---|---|---|---|---|
| 1777546789 | 35.56° C | 35% | 965 hPa | - | - | 0 W/m² | - |
| 1777545863 | 35° C | 37% | 965 hPa | - | - | 0 W/m² | - |
| 1777544937 | 36.11° C | 33% | 965 hPa | - | - | 0 W/m² | - |
| 1777544012 | 36.67° C | 30% | 965 hPa | - | - | 0 W/m² | - |
| 1777543985 | 36.67° C | 30% | 965 hPa | - | - | 0 W/m² | - |
| 1777543058 | 36.11° C | 31% | 965 hPa | - | - | 0 W/m² | - |
| 1777542995 | 36.11° C | 32% | 965 hPa | - | - | 0 W/m² | - |
| 1777542067 | 35.56° C | 32% | 965 hPa | - | - | 0 W/m² | - |
| 1777541140 | 36.11° C | 32% | 965 hPa | - | - | 0 W/m² | - |
| 1777540213 | 36.67° C | 32% | 965 hPa | - | - | 0 W/m² | - |
| 1777539286 | 36.67° C | 33% | 965 hPa | - | - | 0 W/m² | - |
| 1777538360 | 36.67° C | 33% | 965 hPa | - | - | 0 W/m² | - |
| 1777537433 | 35.56° C | 38% | 964 hPa | - | - | 0 W/m² | - |
| 1777536506 | 36.11° C | 37% | 965 hPa | - | - | 0 W/m² | - |
| 1777535578 | 37.22° C | 34% | 965 hPa | - | - | 0 W/m² | - |
| 1777534648 | 37.22° C | 33% | 965 hPa | - | - | 0 W/m² | - |
| 1777533721 | 37.78° C | 32% | 965 hPa | - | - | 0 W/m² | - |
| 1777532790 | 37.22° C | 33% | 966 hPa | - | - | 0 W/m² | - |
| 1777531862 | 37.22° C | 33% | 966 hPa | - | - | 0 W/m² | - |
| 1777530932 | 37.22° C | 33% | 966 hPa | - | - | 0 W/m² | - |
| 1777530003 | 36.67° C | 33% | 967 hPa | - | - | 0 W/m² | - |
| 1777529076 | 36.11° C | 32% | 967 hPa | - | - | 0 W/m² | - |
| 1777528147 | 36.11° C | 34% | 968 hPa | - | - | 0 W/m² | - |
| 1777527218 | 36.11° C | 36% | 968 hPa | - | - | 0 W/m² | - |
| 1777526289 | 35.56° C | 37% | 968 hPa | - | - | 0 W/m² | - |
* Rain since midnight (hover to see other rain measurements)
** Current wind speed in m/s (hover to see current wind gust speed)